Řízení letového provozu České republiky
OPMET data - Ceska Republika Aktualizace: 25.05.2016 01:08:11  UTC
SIGMET / AIRMET - NIL
Warning / Vystraha - NIL
 
METAR / SPECI
METAR LKCV 250100Z 30009KT 9999 OVC008 14/13 Q1011 NOSIG=
METAR LKKB 250100Z 29005KT 260V330 9999 OVC010 12/12 Q1012=
METAR LKKU NIL
METAR LKKV 250100Z 27004KT 9999 OVC021 10/08 Q1013 RMK REG QNH 1005=
METAR LKLN NIL
METAR LKMT 250100Z VRB01KT 9000 NSC 12/11 Q1008 NOSIG RMK REG QNH 1006=
METAR LKNA 250100Z 34008KT 310V020 8000 SCT007 BKN013 14/13 Q1010=
METAR LKPD 250100Z 26010KT 7000 OVC007 14/13 Q1011=
METAR LKPR 250100Z 30007KT 9000 FEW010 11/10 Q1012 NOSIG RMK REG QNH 1006=
METAR LKTB 250100Z 33009KT 9000 NSC 15/13 Q1008 NOSIG RMK REG QNH 1006=
METAR LKVO NIL
TAF
TAF LKCV 242300Z 2500/2524 28010KT 9999 BKN010      TEMPO 2500/2506 BKN006      BECMG 2510/2512 CAVOK=
TAF LKKB 242300Z 2500/2524 35010KT 9999 SCT045      PROB30 TEMPO 2500/2402 6000 SHRA SCT015 BKN025      BECMG 2502/2508 VRB02KT 2000 BR BKN005      BECMG 2507/2509 CAVOK      TEMPO 2508/2518 6000 SHRA SCT020TCU BKN030=
TAF LKKU NIL
TAF LKKV 242300Z 2500/2606 28008KT 9999 SCT027      TEMPO 2500/2505 6000 BKN007      TEMPO 2512/2522 02012KT 8000 -SHRA SCT017TCU      BECMG 2522/2524 VRB02KT 2000 MIFG NSC=
TAF LKLN NIL
TAF LKMT 242300Z 2500/2606 23008KT 9999 SCT035      TEMPO 2502/2505 VRB02KT 5000 BR SCT010=
TAF LKNA 242300Z 2500/2524 31010KT CAVOK      TEMPO 2511/2517 BKN030=
TAF AMD LKPD 242300Z 2500/2524 28007KT 9999 BKN007      TEMPO 2500/2506 3000 MIFG BR      PROB30 2501/2505 0500 BCFG BKN005      BECMG 2507/2509 SCT025      TEMPO 2511/2516 28014KT SHRA SCT030TCU SCT045      BECMG 2513/2515 CAVOK      BECMG 2517/2519 VRB02KT=
TAF LKPR 242300Z 2500/2606 30010KT 9999 SCT035      TEMPO 2500/2505 26005KT 6000 BKN010      TEMPO 2512/2520 35017KT 9000 -SHRA SCT025TCU BKN030      TEMPO 2600/2606 VRB02KT 3000 -RA BR BKN020=
TAF LKTB 242300Z 2500/2606 25008KT 9999 SCT035      TEMPO 2502/2505 5000 BR      TEMPO 2508/2518 32014KT=
TAF LKVO NIL